createdAt,value
2023-02-06T00:01:20.360Z,92.31
2023-02-06T00:03:48.141Z,92.49
2023-02-06T00:06:17.373Z,92.96
2023-02-06T00:08:44.958Z,92.75
2023-02-06T00:11:14.628Z,92.14
2023-02-06T00:13:42.191Z,92.96
2023-02-06T00:16:16.699Z,92.86
2023-02-06T00:18:44.238Z,92.53
2023-02-06T00:21:12.148Z,92.70
2023-02-06T00:23:41.034Z,92.63
2023-02-06T00:26:08.944Z,92.89
2023-02-06T00:28:36.625Z,92.79
2023-02-06T00:31:05.992Z,92.63
2023-02-06T00:33:33.776Z,92.52
2023-02-06T00:36:02.016Z,92.27
2023-02-06T00:38:30.672Z,93.15
2023-02-06T00:40:59.533Z,92.40
2023-02-06T00:43:27.101Z,92.42
2023-02-06T00:45:54.943Z,92.36
2023-02-06T00:48:22.657Z,92.83
2023-02-06T00:50:50.490Z,93.29
2023-02-06T00:53:18.393Z,93.42
2023-02-06T00:55:45.871Z,94.26
2023-02-06T00:58:14.702Z,93.76
2023-02-06T01:00:42.170Z,94.48
2023-02-06T01:03:09.628Z,94.11
2023-02-06T01:05:37.511Z,93.95
2023-02-06T01:08:05.158Z,93.70
2023-02-06T01:10:32.732Z,94.16
2023-02-06T01:13:00.276Z,93.58
2023-02-06T01:15:29.149Z,93.89
2023-02-06T01:17:56.872Z,94.40
2023-02-06T01:20:25.212Z,95.07
2023-02-06T01:22:52.760Z,95.87
2023-02-06T01:25:20.388Z,96.13
2023-02-06T01:27:47.971Z,96.52
2023-02-06T01:30:15.690Z,96.69
2023-02-06T01:32:44.674Z,96.37
2023-02-06T01:35:12.918Z,96.73
2023-02-06T01:37:41.126Z,97.06
2023-02-06T01:40:12.090Z,96.84
2023-02-06T01:42:39.664Z,96.90
2023-02-06T01:45:42.166Z,96.82
2023-02-06T01:48:14.683Z,96.67
2023-02-06T01:50:45.966Z,97.06
2023-02-06T01:53:14.476Z,97.45
2023-02-06T01:55:42.999Z,96.81
2023-02-06T01:58:12.396Z,96.49
2023-02-06T02:00:39.940Z,95.54
2023-02-06T02:03:07.489Z,96.26
2023-02-06T02:05:36.969Z,95.89
2023-02-06T02:08:07.688Z,94.80
2023-02-06T02:10:35.323Z,95.20
2023-02-06T02:13:02.912Z,95.11
2023-02-06T02:15:39.869Z,95.04
2023-02-06T02:18:17.087Z,94.76
2023-02-06T02:21:21.758Z,95.63
2023-02-06T02:23:56.031Z,95.40
2023-02-06T02:26:39.291Z,95.88
2023-02-06T02:29:26.420Z,96.10
2023-02-06T02:32:23.507Z,95.21
2023-02-06T02:35:02.735Z,95.60
2023-02-06T02:37:36.642Z,96.26
2023-02-06T02:40:09.951Z,97.29
2023-02-06T02:42:41.560Z,98.24
2023-02-06T02:45:13.674Z,98.27
2023-02-06T02:47:45.644Z,97.91
2023-02-06T02:50:15.806Z,97.92
2023-02-06T02:52:43.472Z,98.41
2023-02-06T02:55:19.198Z,98.15
2023-02-06T02:57:47.737Z,97.94
2023-02-06T03:00:17.579Z,97.97
2023-02-06T03:02:46.883Z,97.88
2023-02-06T03:05:18.238Z,97.87
2023-02-06T03:07:48.588Z,97.84
2023-02-06T03:10:21.283Z,97.86
2023-02-06T03:12:51.295Z,97.69
2023-02-06T03:15:25.277Z,98.24
2023-02-06T03:17:57.056Z,98.21
2023-02-06T03:20:26.514Z,98.57
2023-02-06T03:22:54.769Z,98.69
2023-02-06T03:25:28.434Z,98.64
2023-02-06T03:27:56.999Z,98.59
2023-02-06T03:30:25.452Z,98.70
2023-02-06T03:32:55.610Z,98.33
2023-02-06T03:35:26.477Z,98.15
2023-02-06T03:37:54.432Z,97.49
2023-02-06T03:40:22.498Z,97.03
2023-02-06T03:42:52.904Z,97.10
2023-02-06T03:45:24.184Z,97.27
2023-02-06T03:47:52.848Z,97.19
2023-02-06T03:50:20.773Z,97.04
2023-02-06T03:52:51.340Z,96.63
2023-02-06T03:55:21.857Z,96.12
2023-02-06T03:57:52.734Z,96.38
2023-02-06T04:00:20.622Z,96.82
2023-02-06T04:02:48.571Z,96.57
2023-02-06T04:05:16.721Z,96.59
2023-02-06T04:07:44.309Z,96.77
2023-02-06T04:10:13.135Z,96.49
2023-02-06T04:12:40.610Z,96.41
2023-02-06T04:15:08.879Z,96.69
2023-02-06T04:17:53.481Z,96.80
2023-02-06T04:20:23.784Z,96.79
2023-02-06T04:22:51.476Z,97.03
2023-02-06T04:25:20.422Z,97.13
2023-02-06T04:27:47.918Z,97.08
2023-02-06T04:30:17.255Z,97.45
2023-02-06T04:32:44.864Z,97.64
2023-02-06T04:35:12.394Z,98.08
2023-02-06T04:37:39.879Z,98.38
2023-02-06T04:40:07.997Z,98.07
2023-02-06T04:42:36.900Z,98.00
2023-02-06T04:45:04.779Z,97.41
2023-02-06T04:47:32.270Z,97.88
2023-02-06T04:49:59.731Z,98.19
2023-02-06T04:52:27.296Z,98.24
2023-02-06T04:54:54.844Z,98.25
2023-02-06T04:57:23.602Z,98.51
2023-02-06T04:59:52.477Z,98.46
2023-02-06T05:02:19.988Z,99.01
2023-02-06T05:04:47.466Z,98.45
2023-02-06T05:07:15.015Z,98.91
2023-02-06T05:09:42.492Z,99.04
2023-02-06T05:12:10.019Z,99.02
2023-02-06T05:14:37.461Z,99.16
2023-02-06T05:17:06.257Z,98.91
2023-02-06T05:19:33.742Z,98.49
2023-02-06T05:22:01.229Z,98.54
2023-02-06T05:24:29.189Z,97.66
2023-02-06T05:26:58.317Z,98.20
2023-02-06T05:29:26.293Z,97.65
2023-02-06T05:31:53.857Z,97.49
2023-02-06T05:34:22.796Z,97.60
2023-02-06T05:36:50.402Z,96.50
2023-02-06T05:39:18.067Z,96.02
2023-02-06T05:41:45.536Z,94.53
2023-02-06T05:44:13.053Z,93.10
2023-02-06T05:46:40.545Z,93.33
2023-02-06T05:49:08.197Z,93.37
2023-02-06T05:51:37.032Z,92.77
2023-02-06T05:54:04.897Z,93.48
2023-02-06T05:56:32.489Z,93.19
2023-02-06T05:58:59.971Z,93.58
2023-02-06T06:01:29.104Z,92.88
2023-02-06T06:03:56.797Z,92.62
2023-02-06T06:06:24.300Z,93.06
2023-02-06T06:08:53.164Z,93.03
2023-02-06T06:11:20.940Z,93.57
2023-02-06T06:13:48.405Z,93.63
2023-02-06T06:16:15.935Z,92.89
2023-02-06T06:18:43.467Z,92.81
2023-02-06T06:21:10.931Z,91.70
2023-02-06T06:23:38.412Z,90.17
2023-02-06T06:26:07.361Z,90.02
2023-02-06T06:28:35.932Z,90.34
2023-02-06T06:31:03.959Z,91.19
2023-02-06T06:33:31.478Z,92.77
2023-02-06T06:35:59.051Z,93.52
2023-02-06T06:38:26.643Z,94.15
2023-02-06T06:40:54.101Z,95.49
2023-02-06T06:43:23.083Z,95.32
2023-02-06T06:45:50.628Z,95.74
2023-02-06T06:48:18.237Z,95.47
2023-02-06T06:50:45.791Z,94.75
2023-02-06T06:53:13.351Z,95.31
2023-02-06T06:55:40.820Z,95.01
2023-02-06T06:58:09.780Z,95.73
2023-02-06T07:00:39.898Z,95.52
2023-02-06T07:03:11.601Z,95.75
2023-02-06T07:05:39.720Z,95.89
2023-02-06T07:08:08.393Z,96.12
2023-02-06T07:10:35.878Z,96.03
2023-02-06T07:13:03.497Z,96.30
2023-02-06T07:15:35.486Z,96.88
2023-02-06T07:18:07.258Z,97.12
2023-02-06T07:20:34.778Z,97.34
2023-02-06T07:23:02.354Z,97.61
2023-02-06T07:25:29.896Z,97.85
2023-02-06T07:27:57.449Z,97.72
2023-02-06T07:30:25.002Z,97.90
2023-02-06T07:32:52.471Z,97.99
2023-02-06T07:35:21.284Z,98.48
2023-02-06T07:37:48.784Z,97.85
2023-02-06T07:40:16.328Z,98.41
2023-02-06T07:42:43.806Z,98.41
2023-02-06T07:45:11.421Z,98.10
2023-02-06T07:47:38.897Z,98.07
2023-02-06T07:50:06.952Z,97.02
2023-02-06T07:52:35.963Z,96.77
2023-02-06T07:55:03.446Z,96.49
2023-02-06T07:57:30.983Z,95.27
2023-02-06T07:59:58.475Z,91.63
2023-02-06T08:02:25.971Z,92.94
2023-02-06T08:04:53.449Z,93.01
2023-02-06T08:07:20.881Z,92.43
2023-02-06T08:09:49.760Z,92.63
2023-02-06T08:12:17.229Z,92.20
2023-02-06T08:14:45.815Z,88.76
2023-02-06T08:17:13.531Z,87.96
2023-02-06T08:19:41.012Z,88.54
2023-02-06T08:22:10.700Z,89.29
2023-02-06T08:24:38.376Z,88.59
2023-02-06T08:27:07.725Z,86.84
2023-02-06T08:29:40.276Z,88.09
2023-02-06T08:32:07.732Z,88.58
2023-02-06T08:34:36.409Z,88.24
2023-02-06T08:37:04.061Z,87.90
2023-02-06T08:39:31.946Z,86.38
2023-02-06T08:41:59.502Z,85.09
2023-02-06T08:44:28.566Z,85.66
2023-02-06T08:47:08.900Z,84.45
2023-02-06T08:49:38.633Z,83.96
2023-02-06T08:52:06.681Z,84.71
2023-02-06T08:54:36.311Z,84.07
2023-02-06T08:57:06.567Z,83.96
2023-02-06T08:59:35.655Z,84.38
2023-02-06T09:02:03.264Z,84.26
2023-02-06T09:04:31.696Z,82.75
2023-02-06T09:06:59.172Z,82.32
2023-02-06T09:09:26.745Z,82.76
2023-02-06T09:11:55.368Z,81.53
2023-02-06T09:14:22.903Z,80.65
2023-02-06T09:16:51.828Z,80.01
2023-02-06T09:19:19.323Z,79.87
2023-02-06T09:21:46.812Z,78.34
2023-02-06T09:24:14.394Z,78.16
2023-02-06T09:26:58.461Z,78.30
2023-02-06T09:29:28.963Z,78.11
2023-02-06T09:31:58.157Z,77.61
2023-02-06T09:34:26.260Z,77.78
2023-02-06T09:36:54.993Z,77.48
2023-02-06T09:39:22.622Z,75.88
2023-02-06T09:41:52.060Z,76.66
2023-02-06T09:44:21.964Z,74.14
2023-02-06T09:46:52.128Z,74.30
2023-02-06T09:49:24.053Z,74.87
2023-02-06T09:52:01.093Z,73.79
2023-02-06T09:54:33.773Z,74.95
2023-02-06T09:57:06.590Z,74.36
2023-02-06T09:59:38.943Z,74.00
2023-02-06T10:02:23.705Z,74.38
2023-02-06T10:04:56.567Z,74.43
2023-02-06T10:07:33.969Z,73.88
2023-02-06T10:10:05.008Z,73.13
2023-02-06T10:12:38.828Z,73.83
2023-02-06T10:15:13.846Z,72.48
2023-02-06T10:17:49.748Z,73.50
2023-02-06T10:20:20.407Z,72.74
2023-02-06T10:22:55.107Z,72.12
2023-02-06T10:25:25.229Z,72.06
2023-02-06T10:27:58.151Z,71.77
2023-02-06T10:30:34.290Z,71.70
2023-02-06T10:33:11.825Z,72.42
2023-02-06T10:35:51.739Z,73.11
2023-02-06T10:38:50.889Z,72.88
2023-02-06T10:41:26.324Z,71.96
2023-02-06T10:43:57.086Z,71.18
2023-02-06T10:46:43.078Z,71.49
2023-02-06T10:49:17.685Z,71.21
2023-02-06T10:51:49.049Z,71.10
2023-02-06T10:54:20.735Z,71.24
2023-02-06T10:56:48.915Z,71.31
2023-02-06T10:59:24.678Z,71.53
2023-02-06T11:01:54.976Z,70.78
2023-02-06T11:04:28.140Z,71.44
2023-02-06T11:07:01.766Z,71.34
2023-02-06T11:09:30.895Z,71.82
2023-02-06T11:11:59.656Z,71.62
2023-02-06T11:14:29.369Z,71.66
2023-02-06T11:17:00.139Z,72.10
2023-02-06T11:19:30.260Z,71.39
2023-02-06T11:22:10.154Z,71.48
2023-02-06T11:24:38.825Z,71.96
2023-02-06T11:27:15.902Z,71.35
2023-02-06T11:29:46.835Z,70.29
2023-02-06T11:32:28.949Z,69.69
2023-02-06T11:34:58.763Z,70.60
2023-02-06T11:37:35.029Z,70.65
2023-02-06T11:40:24.838Z,71.09
2023-02-06T11:42:53.689Z,71.42
2023-02-06T11:45:26.372Z,71.22
2023-02-06T11:47:54.074Z,71.08
2023-02-06T11:50:25.608Z,71.57
2023-02-06T11:53:00.133Z,70.87
2023-02-06T11:55:30.117Z,70.47
2023-02-06T11:58:07.718Z,70.91
2023-02-06T12:00:38.045Z,70.20
2023-02-06T12:03:06.081Z,70.73
2023-02-06T12:05:36.654Z,69.61
2023-02-06T12:08:08.683Z,69.51
2023-02-06T12:10:39.302Z,69.87
2023-02-06T12:13:10.024Z,69.62
2023-02-06T12:15:46.938Z,69.25
2023-02-06T12:18:17.141Z,69.47
2023-02-06T12:20:50.361Z,69.01
2023-02-06T12:23:23.172Z,69.19
2023-02-06T12:25:52.480Z,69.41
2023-02-06T12:28:22.978Z,68.56
2023-02-06T12:30:55.843Z,68.21
2023-02-06T12:33:33.036Z,67.79
2023-02-06T12:36:05.873Z,68.47
2023-02-06T12:38:41.817Z,67.73
2023-02-06T12:41:23.677Z,67.63
2023-02-06T12:43:54.510Z,67.81
2023-02-06T12:46:24.055Z,67.78
2023-02-06T12:48:54.840Z,66.87
2023-02-06T12:51:26.375Z,66.29
2023-02-06T12:53:58.154Z,65.61
2023-02-06T12:56:29.288Z,64.99
2023-02-06T12:59:06.908Z,64.88
2023-02-06T13:01:43.457Z,65.49
2023-02-06T13:04:14.110Z,64.68
2023-02-06T13:06:47.400Z,65.03
2023-02-06T13:09:21.164Z,65.89
2023-02-06T13:11:48.729Z,66.53
2023-02-06T13:14:21.770Z,64.93
2023-02-06T13:16:56.103Z,64.20
2023-02-06T13:19:30.029Z,64.72
2023-02-06T13:22:45.148Z,64.13
2023-02-06T13:25:49.793Z,64.51
2023-02-06T13:28:58.761Z,64.22
2023-02-06T13:31:35.444Z,64.28
2023-02-06T13:34:07.120Z,63.23
2023-02-06T13:36:49.122Z,63.36
2023-02-06T13:39:28.980Z,63.87
2023-02-06T13:42:00.922Z,64.16
2023-02-06T13:44:31.402Z,64.47
2023-02-06T13:47:29.220Z,63.95
2023-02-06T13:50:17.691Z,62.88
2023-02-06T13:52:51.555Z,63.95
2023-02-06T13:55:31.360Z,63.81
2023-02-06T13:58:21.466Z,63.88
2023-02-06T14:00:50.689Z,63.41
2023-02-06T14:03:23.713Z,63.53
2023-02-06T14:05:55.971Z,63.90
2023-02-06T14:08:27.631Z,63.27
2023-02-06T14:11:25.263Z,63.70
2023-02-06T14:14:17.596Z,63.81
2023-02-06T14:16:52.525Z,63.86
2023-02-06T14:19:26.780Z,64.55
2023-02-06T14:22:02.391Z,63.72
2023-02-06T14:24:41.925Z,63.16
2023-02-06T14:27:21.013Z,62.75
2023-02-06T14:29:55.464Z,62.92
2023-02-06T14:32:34.478Z,63.32
2023-02-06T14:35:28.736Z,63.23
2023-02-06T14:38:26.049Z,62.41
2023-02-06T14:40:55.156Z,62.13
2023-02-06T14:43:24.713Z,62.56
2023-02-06T14:46:06.985Z,62.00
2023-02-06T14:48:39.794Z,62.55
2023-02-06T14:51:07.942Z,62.23
2023-02-06T14:53:38.110Z,61.68
2023-02-06T14:56:08.047Z,62.22
2023-02-06T14:58:35.700Z,61.72
2023-02-06T15:01:20.400Z,61.27
2023-02-06T15:03:49.263Z,61.24
2023-02-06T15:06:30.792Z,60.38
2023-02-06T15:08:58.458Z,60.34
2023-02-06T15:11:32.234Z,61.06
2023-02-06T15:14:02.511Z,60.83
2023-02-06T15:16:32.908Z,60.86
2023-02-06T15:19:20.245Z,60.61
2023-02-06T15:21:48.141Z,60.71
2023-02-06T15:24:37.674Z,61.01
2023-02-06T15:27:10.051Z,61.49
2023-02-06T15:29:38.118Z,60.16
2023-02-06T15:32:14.374Z,61.01
2023-02-06T15:34:44.981Z,60.91
2023-02-06T15:37:23.456Z,60.33
2023-02-06T15:39:51.248Z,61.24
2023-02-06T15:42:19.421Z,61.08
2023-02-06T15:44:47.377Z,61.60
2023-02-06T15:47:19.252Z,61.92
2023-02-06T15:49:49.122Z,60.67
2023-02-06T15:52:33.099Z,60.64
2023-02-06T15:55:01.155Z,61.43
2023-02-06T15:57:30.675Z,61.44
2023-02-06T15:59:58.399Z,62.18
2023-02-06T16:02:32.683Z,62.51
2023-02-06T16:05:00.390Z,62.33
2023-02-06T16:07:30.662Z,62.39
2023-02-06T16:10:03.827Z,62.23
2023-02-06T16:12:34.154Z,62.83
2023-02-06T16:15:03.367Z,63.47
2023-02-06T16:17:34.809Z,62.38
2023-02-06T16:20:04.492Z,62.43
2023-02-06T16:22:33.621Z,62.53
2023-02-06T16:25:19.674Z,61.27
2023-02-06T16:27:48.038Z,61.12
2023-02-06T16:30:25.474Z,62.71
2023-02-06T16:32:55.531Z,60.95
2023-02-06T16:35:23.588Z,61.50
2023-02-06T16:37:52.397Z,62.60
2023-02-06T16:40:20.169Z,61.58
2023-02-06T16:42:48.041Z,60.92
2023-02-06T16:45:18.996Z,61.19
2023-02-06T16:47:46.896Z,61.68
2023-02-06T16:50:16.758Z,61.84
2023-02-06T16:52:48.492Z,61.92
2023-02-06T16:55:17.850Z,61.21
2023-02-06T16:57:46.858Z,60.56
2023-02-06T17:00:19.671Z,61.36
2023-02-06T17:02:47.273Z,61.90
2023-02-06T17:05:16.779Z,60.76
2023-02-06T17:07:44.508Z,61.52
2023-02-06T17:10:14.015Z,61.60
2023-02-06T17:12:42.771Z,61.00
2023-02-06T17:15:11.467Z,60.99
2023-02-06T17:17:39.198Z,61.73
2023-02-06T17:20:08.165Z,62.32
2023-02-06T17:22:37.236Z,61.37
2023-02-06T17:25:05.068Z,61.91
2023-02-06T17:27:32.545Z,62.57
2023-02-06T17:30:00.120Z,62.61
2023-02-06T17:32:27.859Z,62.94
2023-02-06T17:34:58.092Z,63.74
2023-02-06T17:37:25.597Z,64.34
2023-02-06T17:39:54.396Z,63.69
2023-02-06T17:42:24.137Z,63.87
2023-02-06T17:44:51.809Z,63.74
2023-02-06T17:47:19.305Z,65.21
2023-02-06T17:49:47.610Z,65.30
2023-02-06T17:52:15.548Z,65.89
2023-02-06T17:54:43.211Z,66.54
2023-02-06T17:57:13.393Z,66.71
2023-02-06T17:59:41.050Z,67.18
2023-02-06T18:02:10.198Z,66.49
2023-02-06T18:04:40.593Z,64.11
2023-02-06T18:07:08.715Z,65.62
2023-02-06T18:09:36.382Z,65.11
2023-02-06T18:12:04.254Z,64.62
2023-02-06T18:14:35.306Z,64.78
2023-02-06T18:17:05.141Z,63.20
2023-02-06T18:19:41.529Z,64.33
2023-02-06T18:22:09.692Z,64.39
2023-02-06T18:24:37.606Z,64.05
2023-02-06T18:27:05.945Z,64.33
2023-02-06T18:29:48.508Z,64.18
2023-02-06T18:32:17.780Z,64.76
2023-02-06T18:34:48.809Z,63.52
2023-02-06T18:37:16.468Z,63.86
2023-02-06T18:39:44.229Z,64.63
2023-02-06T18:42:29.948Z,63.77
2023-02-06T18:44:58.935Z,63.55
2023-02-06T18:47:26.977Z,64.95
2023-02-06T18:49:54.657Z,64.85
2023-02-06T18:52:22.340Z,64.27
2023-02-06T18:54:50.978Z,64.83
2023-02-06T18:57:18.467Z,65.43
2023-02-06T18:59:45.980Z,65.25
2023-02-06T19:02:14.894Z,65.77
2023-02-06T19:04:42.487Z,66.18
2023-02-06T19:07:11.574Z,66.73
2023-02-06T19:09:39.126Z,66.77
2023-02-06T19:12:07.225Z,66.87
2023-02-06T19:14:35.324Z,67.50
2023-02-06T19:17:02.927Z,67.20
2023-02-06T19:19:32.003Z,67.28
2023-02-06T19:21:59.767Z,68.34
2023-02-06T19:24:28.286Z,68.88
2023-02-06T19:26:58.413Z,68.47
2023-02-06T19:29:35.115Z,69.12
2023-02-06T19:32:03.672Z,68.55
2023-02-06T19:34:36.211Z,69.18
2023-02-06T19:37:04.452Z,69.76
2023-02-06T19:39:34.063Z,69.87
2023-02-06T19:42:01.900Z,70.02
2023-02-06T19:44:29.675Z,70.32
2023-02-06T19:47:00.827Z,70.60
2023-02-06T19:49:29.171Z,70.86
2023-02-06T19:51:58.098Z,71.29
2023-02-06T19:54:25.965Z,71.97
2023-02-06T19:56:54.177Z,72.16
2023-02-06T19:59:22.790Z,71.84
2023-02-06T20:01:52.031Z,71.77
2023-02-06T20:04:20.527Z,71.85
2023-02-06T20:06:50.119Z,71.73
2023-02-06T20:09:20.972Z,72.08
2023-02-06T20:11:49.350Z,71.99
2023-02-06T20:14:17.527Z,71.96
2023-02-06T20:16:45.921Z,72.29
2023-02-06T20:19:17.430Z,72.60
2023-02-06T20:21:47.723Z,72.36
2023-02-06T20:24:18.422Z,72.58
2023-02-06T20:26:48.888Z,73.09
2023-02-06T20:29:20.507Z,72.96
2023-02-06T20:31:48.613Z,72.92
2023-02-06T20:34:16.748Z,73.11
2023-02-06T20:36:44.833Z,73.27
2023-02-06T20:39:14.225Z,73.38
2023-02-06T20:41:42.243Z,73.86
2023-02-06T20:44:13.735Z,73.99
2023-02-06T20:46:42.719Z,74.04
2023-02-06T20:49:14.499Z,73.92
2023-02-06T20:51:43.784Z,74.11
2023-02-06T20:54:12.376Z,74.12
2023-02-06T20:56:40.443Z,73.57
2023-02-06T20:59:08.397Z,74.15
2023-02-06T21:01:38.776Z,73.52
2023-02-06T21:04:09.220Z,73.01
2023-02-06T21:06:38.459Z,73.52
2023-02-06T21:09:06.871Z,73.90
2023-02-06T21:11:36.642Z,74.22
2023-02-06T21:14:05.673Z,73.97
2023-02-06T21:16:34.406Z,74.36
2023-02-06T21:19:04.575Z,74.21
2023-02-06T21:21:32.418Z,74.49
2023-02-06T21:24:00.126Z,73.97
2023-02-06T21:26:29.249Z,73.25
2023-02-06T21:28:58.254Z,74.04
2023-02-06T21:31:34.155Z,74.11
2023-02-06T21:34:07.186Z,74.70
2023-02-06T21:36:35.892Z,74.24
2023-02-06T21:39:04.463Z,74.71
2023-02-06T21:41:32.249Z,74.40
2023-02-06T21:44:00.056Z,74.30
2023-02-06T21:46:30.255Z,74.61
2023-02-06T21:48:57.913Z,75.41
2023-02-06T21:51:26.799Z,74.79
2023-02-06T21:53:54.395Z,74.23
2023-02-06T21:56:23.714Z,74.71
2023-02-06T21:58:51.977Z,74.77
2023-02-06T22:01:20.955Z,74.88
2023-02-06T22:03:49.057Z,74.84
2023-02-06T22:06:19.700Z,74.89
2023-02-06T22:08:51.745Z,75.14
2023-02-06T22:11:22.102Z,75.10
2023-02-06T22:13:50.482Z,75.04
2023-02-06T22:16:20.541Z,74.63
2023-02-06T22:18:48.460Z,74.74
2023-02-06T22:21:17.590Z,74.86
2023-02-06T22:23:46.281Z,74.56
2023-02-06T22:26:17.015Z,74.64
2023-02-06T22:28:47.111Z,74.33
2023-02-06T22:31:16.515Z,75.12
2023-02-06T22:33:46.885Z,74.94
2023-02-06T22:36:17.290Z,74.57
2023-02-06T22:38:46.067Z,74.82
2023-02-06T22:41:17.822Z,74.71
2023-02-06T22:43:46.610Z,74.90
2023-02-06T22:46:20.682Z,75.07
2023-02-06T22:48:48.466Z,74.72
2023-02-06T22:51:16.449Z,74.95
2023-02-06T22:53:44.327Z,74.91
2023-02-06T22:56:29.508Z,74.77
2023-02-06T22:59:00.100Z,74.92
2023-02-06T23:01:31.863Z,75.23
2023-02-06T23:04:00.464Z,74.97
2023-02-06T23:06:31.132Z,74.77
2023-02-06T23:08:59.368Z,74.76
2023-02-06T23:11:28.391Z,74.70
2023-02-06T23:14:00.173Z,74.40
2023-02-06T23:16:28.879Z,74.48
2023-02-06T23:18:56.697Z,74.43
2023-02-06T23:21:27.230Z,74.29
2023-02-06T23:23:55.423Z,74.01
2023-02-06T23:26:23.575Z,73.92
2023-02-06T23:28:51.248Z,73.67
2023-02-06T23:31:23.799Z,73.62
2023-02-06T23:33:51.514Z,73.62
2023-02-06T23:36:20.779Z,73.69
2023-02-06T23:38:48.775Z,73.37
2023-02-06T23:41:18.438Z,73.15
2023-02-06T23:43:50.573Z,73.41
2023-02-06T23:46:19.797Z,73.47
2023-02-06T23:48:49.400Z,73.25
2023-02-06T23:51:17.644Z,73.81
2023-02-06T23:53:45.192Z,73.38
2023-02-06T23:56:13.388Z,73.90
2023-02-06T23:58:40.860Z,73.92
